WETO2: N Canadian River, Wetumka, OK

Data processed at Wed May 22 2019 23:50


All information presented herein is the property of the government of the United States of America and may be revised or deleted at any time without prior notice.
Dissemination of this information without the expressed written consent of the Public Affairs Office, Tulsa District U.S. Army Corps of Engineers is strictly prohibited.
These data are gathered electronically and, as presented, have not undergone any form of quality control. These data are not guaranteed to be valid or correct.
Go to home page.
Go to station list.
Go to home page.

Upstream stations:

Downstream station:
Previous Day
Next Day
Current Day
    
SHEF ID:       WETO2     North Canadian River near Wetumk
STATION TYPE:  
Regulating: Stage =    14.00, Flow =     9825

               PRECIP     STAGE  RIV-FLOW  BAT-LOAD
                   in        ft       cfs      volt
              Ccp-Rev   Ccp-Rev   Ccp-Rev   Ccp-Rev
(US/Central)
05/22 00:00      0.00     12.98      8020     12.81
05/22 01:00      0.00     12.85      7802     12.73
05/22 02:00      0.00     12.78      7686     12.73
05/22 03:00      0.00     12.76      7653     12.73
05/22 04:00      0.00     12.71      7571     12.73
05/22 05:00      0.00     12.70      7554     12.65
05/22 06:00      0.00     12.68      7521     12.65
05/22 07:00      0.00     12.63      7440     12.65
05/22 08:00      0.00     12.62      7423     12.65
05/22 09:00      0.00     12.62      7423     12.73
05/22 10:00      0.00     12.64      7456     12.97
05/22 11:00      0.00     12.62      7423     13.05
05/22 12:00      0.00     12.69      7538     13.05
05/22 13:00      0.00     12.72      7587     13.21
05/22 14:00      0.01     12.73      7603     13.37
05/22 15:00      0.00     12.79      7702     13.21
05/22 16:00      0.00     12.79      7702     13.29
05/22 17:00      0.00     12.82      7752     12.97
05/22 18:00      0.00     12.81      7736     13.05
05/22 19:00      0.00     12.85      7802     13.05
05/22 20:00      0.00     12.86      7819     12.97
05/22 21:00      0.00     12.92      7919     12.89
05/22 22:00      0.00     12.94      7953     12.81
05/22 23:00      0.00     13.02      8087     12.81